createdAt,value
2023-03-19T00:00:25.899Z,96.88
2023-03-19T00:02:29.521Z,96.88
2023-03-19T00:04:33.391Z,96.65
2023-03-19T00:06:37.048Z,96.12
2023-03-19T00:08:40.629Z,96.05
2023-03-19T00:10:43.982Z,95.91
2023-03-19T00:12:48.910Z,95.60
2023-03-19T00:14:52.241Z,95.56
2023-03-19T00:16:55.576Z,95.60
2023-03-19T00:18:58.915Z,95.60
2023-03-19T00:21:02.588Z,95.33
2023-03-19T00:23:06.496Z,94.90
2023-03-19T00:25:11.112Z,94.70
2023-03-19T00:27:14.545Z,94.28
2023-03-19T00:29:19.385Z,94.11
2023-03-19T00:31:24.478Z,94.00
2023-03-19T00:33:27.795Z,93.42
2023-03-19T00:35:31.770Z,92.78
2023-03-19T00:37:35.724Z,92.35
2023-03-19T00:39:39.187Z,91.99
2023-03-19T00:41:42.626Z,91.83
2023-03-19T00:43:46.421Z,91.05
2023-03-19T00:45:51.188Z,90.96
2023-03-19T00:47:54.498Z,90.88
2023-03-19T00:49:57.917Z,90.51
2023-03-19T00:52:01.526Z,89.81
2023-03-19T00:54:05.363Z,88.93
2023-03-19T00:56:09.511Z,88.71
2023-03-19T00:58:12.739Z,87.93
2023-03-19T01:02:21.151Z,87.37
2023-03-19T01:04:24.639Z,87.08
2023-03-19T01:06:27.994Z,86.88
2023-03-19T01:08:31.309Z,87.26
2023-03-19T01:10:35.887Z,86.24
2023-03-19T01:12:41.635Z,86.01
2023-03-19T01:14:44.881Z,86.00
2023-03-19T01:16:48.352Z,85.79
2023-03-19T01:18:53.512Z,85.79
2023-03-19T01:20:56.982Z,85.25
2023-03-19T01:23:01.644Z,84.53
2023-03-19T01:25:05.898Z,84.61
2023-03-19T01:27:10.038Z,85.13
2023-03-19T01:29:13.682Z,84.73
2023-03-19T01:31:17.349Z,85.09
2023-03-19T01:33:29.685Z,84.96
2023-03-19T01:35:39.816Z,84.91
2023-03-19T01:37:43.975Z,84.42
2023-03-19T01:39:48.116Z,84.73
2023-03-19T01:41:51.987Z,84.54
2023-03-19T01:44:27.925Z,84.57
2023-03-19T01:46:51.431Z,84.75
2023-03-19T01:49:31.901Z,84.61
2023-03-19T01:51:50.785Z,84.62
2023-03-19T01:54:18.114Z,84.54
2023-03-19T01:56:33.387Z,84.56
2023-03-19T01:59:07.932Z,84.58
2023-03-19T02:01:54.935Z,84.73
2023-03-19T02:04:00.119Z,85.21
2023-03-19T02:06:07.809Z,85.02
2023-03-19T02:08:15.865Z,84.59
2023-03-19T02:10:20.962Z,83.93
2023-03-19T02:12:24.251Z,83.71
2023-03-19T02:14:27.737Z,83.90
2023-03-19T02:16:31.959Z,83.60
2023-03-19T02:18:36.320Z,83.95
2023-03-19T02:20:50.016Z,83.59
2023-03-19T02:23:00.287Z,83.56
2023-03-19T02:25:12.541Z,83.45
2023-03-19T02:27:19.484Z,83.32
2023-03-19T02:29:25.752Z,83.42
2023-03-19T02:31:29.601Z,83.53
2023-03-19T02:33:33.399Z,83.54
2023-03-19T02:35:38.507Z,83.13
2023-03-19T02:37:41.991Z,83.51
2023-03-19T02:39:53.073Z,83.66
2023-03-19T02:41:58.283Z,82.87
2023-03-19T02:44:06.693Z,83.03
2023-03-19T02:46:12.952Z,82.96
2023-03-19T02:48:17.769Z,83.36
2023-03-19T02:50:21.014Z,83.41
2023-03-19T02:52:25.261Z,83.88
2023-03-19T02:54:28.802Z,83.57
2023-03-19T02:56:32.730Z,83.88
2023-03-19T02:58:36.170Z,83.63
2023-03-19T03:00:42.569Z,83.53
2023-03-19T03:02:46.198Z,83.31
2023-03-19T03:04:49.599Z,83.17
2023-03-19T03:06:53.081Z,82.92
2023-03-19T03:08:56.633Z,83.57
2023-03-19T03:11:01.992Z,83.40
2023-03-19T03:13:05.671Z,83.35
2023-03-19T03:15:10.046Z,83.25
2023-03-19T03:17:15.533Z,83.21
2023-03-19T03:19:19.543Z,82.85
2023-03-19T03:21:24.442Z,82.78
2023-03-19T03:23:27.794Z,82.86
2023-03-19T03:25:31.183Z,83.22
2023-03-19T03:27:35.020Z,83.09
2023-03-19T03:29:38.331Z,82.96
2023-03-19T03:31:41.705Z,82.98
2023-03-19T03:33:47.128Z,83.22
2023-03-19T03:35:51.177Z,83.65
2023-03-19T03:37:54.486Z,83.72
2023-03-19T03:39:58.210Z,83.59
2023-03-19T03:42:01.509Z,83.95
2023-03-19T03:44:07.122Z,83.90
2023-03-19T03:46:12.556Z,84.05
2023-03-19T03:48:16.344Z,84.02
2023-03-19T03:50:21.112Z,83.99
2023-03-19T03:52:31.353Z,84.33
2023-03-19T03:54:35.475Z,84.45
2023-03-19T03:56:39.009Z,84.00
2023-03-19T03:58:42.319Z,84.31
2023-03-19T04:00:46.259Z,84.43
2023-03-19T04:02:49.668Z,83.99
2023-03-19T04:04:53.533Z,83.71
2023-03-19T04:06:58.137Z,83.80
2023-03-19T04:09:09.450Z,84.02
2023-03-19T04:11:13.278Z,84.38
2023-03-19T04:13:16.577Z,83.92
2023-03-19T04:15:20.457Z,83.96
2023-03-19T04:17:24.927Z,84.09
2023-03-19T04:19:28.494Z,84.02
2023-03-19T04:21:31.969Z,84.11
2023-03-19T04:23:36.748Z,83.96
2023-03-19T04:25:41.615Z,83.97
2023-03-19T04:27:45.322Z,84.40
2023-03-19T04:29:48.706Z,84.17
2023-03-19T04:31:52.924Z,84.02
2023-03-19T04:33:56.217Z,84.22
2023-03-19T04:36:00.589Z,84.06
2023-03-19T04:38:04.214Z,84.13
2023-03-19T04:40:11.123Z,84.33
2023-03-19T04:42:15.519Z,84.40
2023-03-19T04:44:28.505Z,84.35
2023-03-19T04:46:32.248Z,84.46
2023-03-19T04:48:36.577Z,84.55
2023-03-19T04:50:41.067Z,84.52
2023-03-19T04:52:44.296Z,84.33
2023-03-19T04:54:48.896Z,83.97
2023-03-19T04:56:54.255Z,84.20
2023-03-19T04:58:59.830Z,84.35
2023-03-19T05:01:03.926Z,83.93
2023-03-19T05:03:30.075Z,83.83
2023-03-19T05:05:33.476Z,83.87
2023-03-19T05:07:42.457Z,83.81
2023-03-19T05:09:47.935Z,83.82
2023-03-19T05:11:53.822Z,83.32
2023-03-19T05:13:58.926Z,83.61
2023-03-19T05:16:09.513Z,83.41
2023-03-19T05:18:13.647Z,83.11
2023-03-19T05:20:20.673Z,83.22
2023-03-19T05:22:39.870Z,82.96
2023-03-19T05:24:43.938Z,82.89
2023-03-19T05:26:47.618Z,82.45
2023-03-19T05:29:14.063Z,82.91
2023-03-19T05:31:30.356Z,83.04
2023-03-19T05:33:33.966Z,82.85
2023-03-19T05:35:39.328Z,83.33
2023-03-19T05:37:50.120Z,83.00
2023-03-19T05:39:53.671Z,83.36
2023-03-19T05:41:56.943Z,83.37
2023-03-19T05:44:05.114Z,83.06
2023-03-19T05:46:39.157Z,83.43
2023-03-19T05:48:42.853Z,83.22
2023-03-19T05:50:46.622Z,83.14
2023-03-19T05:52:55.709Z,82.90
2023-03-19T05:54:59.024Z,83.17
2023-03-19T05:57:28.427Z,83.15
2023-03-19T05:59:52.283Z,83.08
2023-03-19T06:02:12.241Z,82.92
2023-03-19T06:04:16.707Z,83.03
2023-03-19T06:06:20.472Z,82.68
2023-03-19T06:08:27.965Z,82.91
2023-03-19T06:10:53.781Z,82.90
2023-03-19T06:12:57.128Z,82.82
2023-03-19T06:15:14.806Z,82.92
2023-03-19T06:17:22.500Z,82.75
2023-03-19T06:19:26.208Z,82.94
2023-03-19T06:21:31.628Z,83.29
2023-03-19T06:23:38.386Z,82.98
2023-03-19T06:25:43.249Z,83.27
2023-03-19T06:27:47.515Z,82.88
2023-03-19T06:30:02.249Z,82.73
2023-03-19T06:32:09.912Z,82.90
2023-03-19T06:34:17.611Z,82.92
2023-03-19T06:36:21.209Z,83.08
2023-03-19T06:38:25.142Z,83.42
2023-03-19T06:40:28.394Z,83.49
2023-03-19T06:42:31.829Z,83.47
2023-03-19T06:44:35.490Z,83.20
2023-03-19T06:46:38.764Z,82.87
2023-03-19T06:48:42.171Z,82.71
2023-03-19T06:50:47.613Z,82.75
2023-03-19T06:52:51.060Z,83.04
2023-03-19T06:54:54.384Z,82.98
2023-03-19T06:56:57.694Z,82.67
2023-03-19T06:59:01.062Z,82.94
2023-03-19T07:01:04.432Z,82.51
2023-03-19T07:03:07.767Z,82.13
2023-03-19T07:05:11.260Z,82.04
2023-03-19T07:07:16.134Z,82.24
2023-03-19T07:09:19.448Z,82.26
2023-03-19T07:11:22.648Z,81.89
2023-03-19T07:13:25.954Z,81.79
2023-03-19T07:15:29.160Z,81.95
2023-03-19T07:17:32.500Z,81.13
2023-03-19T07:19:35.904Z,81.55
2023-03-19T07:21:39.189Z,81.43
2023-03-19T07:23:44.067Z,81.13
2023-03-19T07:25:47.838Z,81.17
2023-03-19T07:27:51.080Z,81.03
2023-03-19T07:29:55.719Z,80.73
2023-03-19T07:31:59.182Z,80.49
2023-03-19T07:34:02.973Z,80.44
2023-03-19T07:36:07.306Z,80.19
2023-03-19T07:38:10.551Z,80.29
2023-03-19T07:40:15.398Z,79.83
2023-03-19T07:42:18.725Z,80.00
2023-03-19T07:44:21.946Z,79.76
2023-03-19T07:46:25.588Z,79.47
2023-03-19T07:48:28.935Z,79.38
2023-03-19T07:50:32.924Z,78.38
2023-03-19T07:52:36.846Z,78.86
2023-03-19T07:54:40.064Z,78.48
2023-03-19T07:56:45.314Z,78.57
2023-03-19T07:58:48.970Z,78.36
2023-03-19T08:00:52.612Z,78.38
2023-03-19T08:02:55.856Z,78.43
2023-03-19T08:05:02.169Z,78.51
2023-03-19T08:07:06.108Z,78.40
2023-03-19T08:09:09.952Z,78.85
2023-03-19T08:11:13.132Z,78.27
2023-03-19T08:13:17.824Z,78.13
2023-03-19T08:15:21.563Z,78.17
2023-03-19T08:17:24.980Z,77.90
2023-03-19T08:19:28.378Z,77.83
2023-03-19T08:21:33.808Z,77.56
2023-03-19T08:23:37.163Z,77.18
2023-03-19T08:25:40.622Z,76.57
2023-03-19T08:27:44.204Z,76.19
2023-03-19T08:29:48.861Z,76.30
2023-03-19T08:31:52.085Z,75.73
2023-03-19T08:33:56.043Z,75.44
2023-03-19T08:36:07.221Z,74.89
2023-03-19T08:38:11.253Z,74.79
2023-03-19T08:40:15.132Z,74.19
2023-03-19T08:42:18.726Z,73.57
2023-03-19T08:44:22.040Z,73.67
2023-03-19T08:46:27.790Z,73.20
2023-03-19T08:48:31.909Z,72.66
2023-03-19T08:50:36.153Z,72.71
2023-03-19T08:52:40.139Z,72.81
2023-03-19T08:54:43.894Z,71.54
2023-03-19T08:56:47.801Z,71.09
2023-03-19T08:58:51.209Z,71.61
2023-03-19T09:00:54.925Z,71.41
2023-03-19T09:02:59.578Z,70.70
2023-03-19T09:05:03.278Z,69.95
2023-03-19T09:07:07.333Z,69.21
2023-03-19T09:09:10.960Z,68.92
2023-03-19T09:11:17.270Z,69.68
2023-03-19T09:13:21.280Z,69.46
2023-03-19T09:15:24.890Z,69.07
2023-03-19T09:17:28.951Z,68.15
2023-03-19T09:19:34.526Z,67.70
2023-03-19T09:21:38.666Z,66.85
2023-03-19T09:23:42.673Z,66.69
2023-03-19T09:25:46.453Z,66.66
2023-03-19T09:27:50.365Z,64.92
2023-03-19T09:29:54.337Z,65.09
2023-03-19T09:31:57.855Z,63.91
2023-03-19T09:34:01.959Z,63.54
2023-03-19T09:36:08.872Z,62.64
2023-03-19T09:38:12.593Z,62.28
2023-03-19T09:40:24.098Z,62.70
2023-03-19T09:42:50.879Z,62.11
2023-03-19T09:44:55.345Z,61.76
2023-03-19T09:47:03.507Z,61.29
2023-03-19T09:49:18.187Z,61.37
2023-03-19T09:51:32.009Z,61.19
2023-03-19T09:53:42.406Z,61.21
2023-03-19T09:55:49.493Z,61.28
2023-03-19T09:57:55.769Z,61.04
2023-03-19T10:00:00.539Z,60.75
2023-03-19T10:02:25.726Z,60.81
2023-03-19T10:04:45.370Z,60.67
2023-03-19T10:06:55.768Z,60.70
2023-03-19T10:09:13.846Z,60.56
2023-03-19T10:11:33.745Z,60.52
2023-03-19T10:13:51.286Z,61.54
2023-03-19T10:15:56.999Z,61.11
2023-03-19T10:18:04.974Z,61.43
2023-03-19T10:20:17.210Z,60.60
2023-03-19T10:22:28.590Z,60.86
2023-03-19T10:24:37.327Z,60.97
2023-03-19T10:26:41.215Z,61.26
2023-03-19T10:28:47.919Z,60.18
2023-03-19T10:30:58.283Z,60.42
2023-03-19T10:33:14.412Z,60.49
2023-03-19T10:35:21.695Z,60.20
2023-03-19T10:37:29.533Z,60.41
2023-03-19T10:39:35.624Z,60.85
2023-03-19T10:41:48.104Z,60.94
2023-03-19T10:43:56.214Z,61.19
2023-03-19T10:46:00.212Z,61.43
2023-03-19T10:48:05.652Z,62.03
2023-03-19T10:50:16.722Z,61.84
2023-03-19T10:52:25.763Z,61.58
2023-03-19T10:54:32.129Z,61.75
2023-03-19T10:56:36.395Z,61.26
2023-03-19T10:58:40.610Z,61.04
2023-03-19T11:00:48.206Z,61.77
2023-03-19T11:02:54.077Z,62.07
2023-03-19T11:05:10.398Z,61.26
2023-03-19T11:07:16.684Z,61.75
2023-03-19T11:09:27.400Z,62.25
2023-03-19T11:11:38.279Z,61.79
2023-03-19T11:13:42.105Z,61.67
2023-03-19T11:15:49.522Z,61.81
2023-03-19T11:17:59.160Z,62.55
2023-03-19T11:20:20.893Z,61.89
2023-03-19T11:22:27.478Z,61.92
2023-03-19T11:24:34.788Z,60.48
2023-03-19T11:26:39.759Z,61.68
2023-03-19T11:28:44.926Z,60.98
2023-03-19T11:30:57.419Z,59.79
2023-03-19T11:33:27.279Z,59.32
2023-03-19T11:35:34.966Z,60.15
2023-03-19T11:37:56.250Z,60.04
2023-03-19T11:40:10.673Z,60.06
2023-03-19T11:42:57.190Z,59.52
2023-03-19T11:45:16.423Z,59.62
2023-03-19T11:47:32.655Z,60.01
2023-03-19T11:49:58.217Z,59.95
2023-03-19T11:52:10.252Z,59.48
2023-03-19T11:54:24.200Z,59.31
2023-03-19T11:56:38.012Z,59.39
2023-03-19T11:59:19.589Z,58.69
2023-03-19T12:01:39.514Z,58.58
2023-03-19T12:04:04.144Z,58.60
2023-03-19T12:06:19.132Z,58.81
2023-03-19T12:08:36.251Z,58.52
2023-03-19T12:11:04.953Z,58.98
2023-03-19T12:13:21.849Z,58.92
2023-03-19T12:15:31.659Z,58.85
2023-03-19T12:17:53.379Z,58.64
2023-03-19T12:20:12.572Z,57.87
2023-03-19T12:22:26.871Z,58.21
2023-03-19T12:24:45.618Z,58.37
2023-03-19T12:26:58.543Z,58.69
2023-03-19T12:29:08.031Z,58.70
2023-03-19T12:31:31.279Z,58.58
2023-03-19T12:33:44.804Z,58.82
2023-03-19T12:35:51.856Z,58.59
2023-03-19T12:38:01.185Z,58.62
2023-03-19T12:40:15.868Z,58.78
2023-03-19T12:42:24.619Z,58.65
2023-03-19T12:44:34.460Z,59.04
2023-03-19T12:46:45.531Z,58.84
2023-03-19T12:48:54.626Z,59.95
2023-03-19T12:51:05.838Z,59.54
2023-03-19T12:53:12.879Z,59.88
2023-03-19T12:55:22.230Z,60.46
2023-03-19T12:57:36.356Z,60.26
2023-03-19T12:59:48.566Z,60.87
2023-03-19T13:02:01.615Z,60.91
2023-03-19T13:04:10.598Z,60.98
2023-03-19T13:06:21.539Z,60.43
2023-03-19T13:08:33.048Z,60.84
2023-03-19T13:10:37.168Z,60.24
2023-03-19T13:12:41.439Z,59.71
2023-03-19T13:14:54.186Z,59.98
2023-03-19T13:17:04.540Z,60.52
2023-03-19T13:19:18.489Z,60.72
2023-03-19T13:21:25.394Z,60.74
2023-03-19T13:23:34.418Z,61.01
2023-03-19T13:25:41.490Z,61.26
2023-03-19T13:27:54.373Z,61.28
2023-03-19T13:30:09.487Z,62.22
2023-03-19T13:32:27.382Z,62.34
2023-03-19T13:34:35.915Z,61.53
2023-03-19T13:36:40.772Z,61.65
2023-03-19T13:38:48.507Z,61.40
2023-03-19T13:40:53.814Z,61.63
2023-03-19T13:42:58.262Z,61.14
2023-03-19T13:45:04.786Z,60.72
2023-03-19T13:47:44.821Z,61.05
2023-03-19T13:52:50.343Z,62.53
2023-03-19T13:54:57.177Z,62.27
2023-03-19T13:57:36.884Z,62.63
2023-03-19T13:59:44.031Z,62.13
2023-03-19T14:01:47.749Z,62.25
2023-03-19T14:03:58.761Z,62.16
2023-03-19T14:06:03.167Z,63.20
2023-03-19T14:08:18.961Z,63.18
2023-03-19T14:10:28.787Z,63.98
2023-03-19T14:12:35.672Z,63.57
2023-03-19T14:14:43.479Z,64.17
2023-03-19T14:16:48.008Z,63.77
2023-03-19T14:18:52.005Z,64.73
2023-03-19T14:21:00.773Z,64.31
2023-03-19T14:23:23.347Z,65.11
2023-03-19T14:25:49.762Z,64.98
2023-03-19T14:27:56.972Z,65.34
2023-03-19T14:30:09.617Z,64.74
2023-03-19T14:32:19.113Z,65.68
2023-03-19T14:34:28.001Z,66.18
2023-03-19T14:36:33.186Z,66.09
2023-03-19T14:38:42.665Z,66.55
2023-03-19T14:40:51.950Z,66.40
2023-03-19T14:43:04.432Z,66.66
2023-03-19T14:45:28.416Z,66.76
2023-03-19T14:47:54.741Z,67.72
2023-03-19T14:50:47.909Z,67.71
2023-03-19T14:53:00.187Z,68.06
2023-03-19T14:55:11.577Z,68.55
2023-03-19T14:57:19.691Z,69.50
2023-03-19T14:59:23.348Z,69.76
2023-03-19T15:01:28.492Z,70.44
2023-03-19T15:03:34.520Z,70.46
2023-03-19T15:05:38.454Z,70.92
2023-03-19T15:07:46.133Z,71.12
2023-03-19T15:09:55.272Z,71.63
2023-03-19T15:12:34.444Z,72.39
2023-03-19T15:14:55.556Z,71.79
2023-03-19T15:17:07.791Z,73.05
2023-03-19T15:19:12.677Z,73.42
2023-03-19T15:21:17.955Z,73.84
2023-03-19T15:23:27.301Z,74.53
2023-03-19T15:25:32.294Z,74.71
2023-03-19T15:27:38.004Z,75.60
2023-03-19T15:29:41.575Z,76.25
2023-03-19T15:31:52.792Z,76.31
2023-03-19T15:34:19.671Z,77.17
2023-03-19T15:36:27.410Z,78.95
2023-03-19T15:38:37.105Z,81.14
2023-03-19T15:40:42.861Z,81.77
2023-03-19T15:42:49.415Z,81.39
2023-03-19T15:44:57.033Z,82.44
2023-03-19T15:47:03.401Z,82.55
2023-03-19T15:49:12.361Z,83.70
2023-03-19T15:51:20.965Z,83.84
2023-03-19T15:53:28.156Z,85.22
2023-03-19T15:55:32.066Z,88.67
2023-03-19T15:57:37.416Z,88.17
2023-03-19T15:59:43.504Z,88.63
2023-03-19T16:01:46.926Z,87.65
2023-03-19T16:03:56.585Z,88.17
2023-03-19T16:06:04.547Z,89.15
2023-03-19T16:08:18.669Z,90.82
2023-03-19T16:10:35.449Z,92.77
2023-03-19T16:12:42.577Z,93.43
2023-03-19T16:14:47.545Z,91.72
2023-03-19T16:16:52.103Z,92.57
2023-03-19T16:18:57.257Z,91.69
2023-03-19T16:21:07.687Z,91.84
2023-03-19T16:23:17.724Z,93.91
2023-03-19T16:25:22.362Z,93.01
2023-03-19T16:27:35.088Z,92.83
2023-03-19T16:29:41.892Z,92.90
2023-03-19T16:31:52.056Z,93.80
2023-03-19T16:33:57.275Z,94.21
2023-03-19T16:36:01.042Z,95.42
2023-03-19T16:38:13.954Z,96.08
2023-03-19T16:40:43.722Z,95.22
2023-03-19T16:42:49.845Z,95.95
2023-03-19T16:44:54.303Z,97.38
2023-03-19T16:46:59.571Z,97.69
2023-03-19T16:49:03.318Z,98.48
2023-03-19T16:51:11.996Z,100.00
2023-03-19T16:53:24.048Z,100.00
2023-03-19T16:55:30.147Z,100.00
2023-03-19T16:57:34.058Z,100.00
2023-03-19T16:59:37.938Z,100.00
2023-03-19T17:01:41.633Z,100.00
2023-03-19T17:03:48.110Z,100.00
2023-03-19T17:05:51.927Z,100.00
2023-03-19T17:07:56.572Z,100.00
2023-03-19T17:10:00.317Z,100.00
2023-03-19T17:12:06.364Z,100.00
2023-03-19T17:14:16.684Z,100.00
2023-03-19T17:16:21.474Z,100.00
2023-03-19T17:18:26.790Z,100.00
2023-03-19T17:20:47.703Z,100.00
2023-03-19T17:22:57.612Z,100.00
2023-03-19T17:25:01.282Z,100.00
2023-03-19T17:27:05.781Z,100.00
2023-03-19T17:29:12.261Z,100.00
2023-03-19T17:31:27.885Z,100.00
2023-03-19T17:33:32.089Z,100.00
2023-03-19T17:35:37.317Z,100.00
2023-03-19T17:37:41.535Z,100.00
2023-03-19T17:39:46.072Z,100.00
2023-03-19T17:41:49.988Z,100.00
2023-03-19T17:43:53.728Z,100.00
2023-03-19T17:45:57.362Z,100.00
2023-03-19T17:48:01.098Z,100.00
2023-03-19T17:50:06.736Z,100.00
2023-03-19T17:52:16.088Z,100.00
2023-03-19T17:54:21.833Z,100.00
2023-03-19T17:56:27.505Z,100.00
2023-03-19T17:58:31.383Z,100.00
2023-03-19T18:00:35.281Z,100.00
2023-03-19T18:02:41.303Z,100.00
2023-03-19T18:04:45.069Z,100.00
2023-03-19T18:06:52.060Z,100.00
2023-03-19T18:08:57.503Z,100.00
2023-03-19T18:11:02.066Z,100.00
2023-03-19T18:13:07.420Z,100.00
2023-03-19T18:15:13.017Z,100.00
2023-03-19T18:17:18.464Z,100.00
2023-03-19T18:19:30.401Z,100.00
2023-03-19T18:21:35.578Z,100.00
2023-03-19T18:23:39.514Z,100.00
2023-03-19T18:25:46.089Z,100.00
2023-03-19T18:27:51.461Z,100.00
2023-03-19T18:29:56.123Z,100.00
2023-03-19T18:32:04.712Z,100.00
2023-03-19T18:34:12.509Z,100.00
2023-03-19T18:36:21.391Z,100.00
2023-03-19T18:38:29.672Z,100.00
2023-03-19T18:40:35.216Z,100.00
2023-03-19T18:42:41.149Z,100.00
2023-03-19T18:44:46.009Z,100.00
2023-03-19T18:46:50.724Z,100.00
2023-03-19T18:48:58.839Z,100.00
2023-03-19T18:51:03.151Z,100.00
2023-03-19T18:53:08.471Z,100.00
2023-03-19T18:55:13.826Z,100.00
2023-03-19T18:57:18.611Z,100.00
2023-03-19T18:59:30.599Z,100.00
2023-03-19T19:01:35.123Z,100.00
2023-03-19T19:03:39.316Z,100.00
2023-03-19T19:05:43.900Z,100.00
2023-03-19T19:07:48.328Z,100.00
2023-03-19T19:09:53.617Z,100.00
2023-03-19T19:12:01.061Z,100.00
2023-03-19T19:14:06.045Z,100.00
2023-03-19T19:16:19.819Z,100.00
2023-03-19T19:18:26.162Z,100.00
2023-03-19T19:20:31.554Z,100.00
2023-03-19T19:22:35.832Z,100.00
2023-03-19T19:24:40.535Z,100.00
2023-03-19T19:26:46.541Z,100.00
2023-03-19T19:28:52.142Z,100.00
2023-03-19T19:30:57.783Z,100.00
2023-03-19T19:33:04.899Z,100.00
2023-03-19T19:35:17.318Z,100.00
2023-03-19T19:37:23.672Z,100.00
2023-03-19T19:39:28.810Z,100.00
2023-03-19T19:41:34.112Z,100.00
2023-03-19T19:43:42.734Z,100.00
2023-03-19T19:45:48.729Z,100.00
2023-03-19T19:47:54.013Z,100.00
2023-03-19T19:49:59.579Z,100.00
2023-03-19T19:52:03.518Z,100.00
2023-03-19T19:54:07.397Z,100.00
2023-03-19T19:56:16.884Z,100.00
2023-03-19T19:58:23.700Z,100.00
2023-03-19T20:00:30.217Z,100.00
2023-03-19T20:02:34.962Z,100.00
2023-03-19T20:04:39.261Z,100.00
2023-03-19T20:06:44.607Z,100.00
2023-03-19T20:08:49.800Z,100.00
2023-03-19T20:10:54.149Z,100.00
2023-03-19T20:13:00.159Z,100.00
2023-03-19T20:15:04.622Z,100.00
2023-03-19T20:17:11.132Z,100.00
2023-03-19T20:19:20.897Z,100.00
2023-03-19T20:21:25.265Z,100.00
2023-03-19T20:23:31.453Z,100.00
2023-03-19T20:25:35.474Z,100.00
2023-03-19T20:27:39.794Z,100.00
2023-03-19T20:29:43.542Z,100.00
2023-03-19T20:31:48.181Z,100.00
2023-03-19T20:33:52.421Z,100.00
2023-03-19T20:35:56.507Z,100.00
2023-03-19T20:38:02.663Z,100.00
2023-03-19T20:40:08.995Z,100.00
2023-03-19T20:42:16.396Z,100.00
2023-03-19T20:44:26.274Z,100.00
2023-03-19T20:46:32.592Z,100.00
2023-03-19T20:48:36.672Z,100.00
2023-03-19T20:50:40.570Z,100.00
2023-03-19T20:52:44.754Z,100.00
2023-03-19T20:54:48.537Z,100.00
2023-03-19T20:56:53.781Z,100.00
2023-03-19T20:58:57.668Z,100.00
2023-03-19T21:01:01.635Z,100.00
2023-03-19T21:03:05.603Z,100.00
2023-03-19T21:05:13.352Z,100.00
2023-03-19T21:07:29.077Z,100.00
2023-03-19T21:09:32.732Z,100.00
2023-03-19T21:11:40.852Z,100.00
2023-03-19T21:13:46.511Z,100.00
2023-03-19T21:15:51.479Z,100.00
2023-03-19T21:17:55.556Z,100.00
2023-03-19T21:19:59.670Z,100.00
2023-03-19T21:22:07.687Z,100.00
2023-03-19T21:24:16.393Z,100.00
2023-03-19T21:26:22.773Z,100.00
2023-03-19T21:28:30.700Z,100.00
2023-03-19T21:30:39.404Z,100.00
2023-03-19T21:32:43.014Z,100.00
2023-03-19T21:34:49.026Z,100.00
2023-03-19T21:36:53.504Z,100.00
2023-03-19T21:38:57.999Z,100.00
2023-03-19T21:41:05.331Z,100.00
2023-03-19T21:43:09.134Z,100.00
2023-03-19T21:45:20.845Z,100.00
2023-03-19T21:47:26.228Z,100.00
2023-03-19T21:49:30.533Z,100.00
2023-03-19T21:51:34.277Z,100.00
2023-03-19T21:53:37.810Z,100.00
2023-03-19T21:55:41.739Z,100.00
2023-03-19T21:57:46.329Z,100.00
2023-03-19T21:59:50.166Z,100.00
2023-03-19T22:01:54.432Z,100.00
2023-03-19T22:04:00.429Z,100.00
2023-03-19T22:06:04.328Z,100.00
2023-03-19T22:08:09.321Z,100.00
2023-03-19T22:10:13.825Z,100.00
2023-03-19T22:12:27.724Z,100.00
2023-03-19T22:14:32.426Z,100.00
2023-03-19T22:16:36.549Z,100.00
2023-03-19T22:18:41.063Z,100.00
2023-03-19T22:20:47.657Z,100.00
2023-03-19T22:22:51.883Z,100.00
2023-03-19T22:24:59.835Z,100.00
2023-03-19T22:27:04.267Z,100.00
2023-03-19T22:29:13.311Z,100.00
2023-03-19T22:31:18.110Z,100.00
2023-03-19T22:33:24.971Z,100.00
2023-03-19T22:35:31.204Z,100.00
2023-03-19T22:37:37.111Z,100.00
2023-03-19T22:39:41.618Z,100.00
2023-03-19T22:41:48.116Z,100.00
2023-03-19T22:43:52.534Z,100.00
2023-03-19T22:46:00.215Z,100.00
2023-03-19T22:48:04.589Z,100.00
2023-03-19T22:50:18.037Z,100.00
2023-03-19T22:52:22.830Z,100.00
2023-03-19T22:54:28.370Z,100.00
2023-03-19T22:56:33.369Z,100.00
2023-03-19T22:58:37.380Z,100.00
2023-03-19T23:00:41.742Z,100.00
2023-03-19T23:02:46.878Z,100.00
2023-03-19T23:04:50.495Z,100.00
2023-03-19T23:06:57.490Z,100.00
2023-03-19T23:09:01.346Z,100.00
2023-03-19T23:11:08.115Z,100.00
2023-03-19T23:13:14.607Z,100.00
2023-03-19T23:15:18.838Z,100.00
2023-03-19T23:17:24.067Z,100.00
2023-03-19T23:19:31.401Z,100.00
2023-03-19T23:21:35.670Z,100.00
2023-03-19T23:23:40.293Z,100.00
2023-03-19T23:25:45.281Z,100.00
2023-03-19T23:27:51.897Z,100.00
2023-03-19T23:29:57.125Z,100.00
2023-03-19T23:32:01.983Z,100.00
2023-03-19T23:34:06.072Z,100.00
2023-03-19T23:36:11.919Z,100.00
2023-03-19T23:38:17.567Z,100.00
2023-03-19T23:40:21.681Z,100.00
2023-03-19T23:42:29.798Z,100.00
2023-03-19T23:44:35.323Z,100.00
2023-03-19T23:46:39.437Z,100.00
2023-03-19T23:48:43.478Z,100.00
2023-03-19T23:50:48.469Z,100.00
2023-03-19T23:52:51.084Z,100.00
2023-03-19T23:54:55.099Z,100.00
2023-03-19T23:56:59.937Z,100.00
2023-03-19T23:59:03.682Z,100.00
